Terminal Aerodrome Forecast
Issued by NWS Binghamton, NY

Home | Current Version | Previous Version | Text Only | Print | Product List | Glossary On
Versions: 1 2 3 4 5 6 7 8 9 10 11 12 13 14 15 16 17
029
FTUS41 KBGM 261120
TAFAVP
TAF
KAVP 261120Z 2612/2712 VRB05KT P6SM BKN070
     FM261400 30006KT P6SM BKN060
     FM261600 32007KT P6SM SCT110
     FM270200 VRB04KT P6SM SKC=

USA.gov is the U.S. government's official web portal to all federal, state and local government web resources and services.